Portada
METAR-TAF:

METAR-TAF

Aeroports :

Samara, Rússia

latitud: 53-12N, longitud: 050-09E, altitud: 44 m

Observació

L'informe es va fer fa 39 minuts, a les 06:30 UTC
Vent 8 kt del Sud
Temperatura 11°C
Humitat 43%
Pressió 1013 hPa
Visibilitat 10 km o més
sense núvols per sota de 1500 mi sense presència de cumulonimbus.

METAR: UWWW 300630Z 17004MPS CAVOK 11/M01 Q1013 R15/CLRD60 NOSIG RMK QFE748/0998

Hora: 11:09 (07:09 UTC)

Pronòstic

L'informe es va fer fa 2 hores i 14 minuts, a les 04:55 UTC
Pronòstic vàlid del 30 a les 06 UTC al 31 a les 06 UTC
Vent 6 kt del Sud/Sud-Est amb ràfegues de 17 kt
Visibilitat 10 km o més
Núvols disperses a una alçada de 3300 ft
Temporalment
l' 30 a les 06 UTC al 31 a les 06 UTC
Vent 12 kt del Sud amb ràfegues de 25 kt

TAF: UWWW 300455Z 3006/3106 15003G09MPS 9999 SCT033 TX15/3011Z TN04/3103Z TEMPO 3006/3106 18006G13MPS

Observacions i pronòstics meteorològics de més de 4000 aeroports (METAR i TAF).

Les estacions disponibles són els punts grocs i vermells al mapa.

Posi el ratolí al punt desitjat per veure el nom de l'estació.

Feu clic per veure les observacions i els pronòstics meteorològics.

Per canviar el mapa: feu clic els botons verds amb una creu de color negre per apropar; al botó verd amb un guió per allunyar la imatge; o en les fletxes verdes per a mapes adjacents.


METAR-TAF: